Time;durP1;ratioP1;P1;durP2;ratioP2;P2;SDS_P1;SDS_P2;PMS_P1;PMS_P2;Temp;Humidity;BMP_temperature;BMP_pressure;BME280_temperature;BME280_humidity;BME280_pressure;Samples;Min_cycle;Max_cycle;Signal;HPM_P1;HPM_P2
2023/06/28 00:01:17;;;;;;;5.90;2.97;;;11.90;99.90;;;15.92;100.00;100941.84;4991401;28;20555;-86
2023/06/28 00:03:44;;;;;;;9.05;3.38;;;11.90;99.90;;;16.01;100.00;100949.69;4998133;28;20076;-86
2023/06/28 00:06:09;;;;;;;7.68;3.10;;;11.90;99.90;;;16.18;100.00;100939.56;4992481;28;20046;-86
2023/06/28 00:08:35;;;;;;;7.38;3.20;;;12.00;99.90;;;16.16;100.00;100946.41;5007838;28;20042;-85
2023/06/28 00:11:01;;;;;;;6.80;3.30;;;11.90;99.90;;;16.08;100.00;100947.63;4979468;28;20046;-86
2023/06/28 00:13:28;;;;;;;11.05;3.67;;;11.90;99.90;;;16.02;100.00;100954.13;5009802;28;20042;-86
2023/06/28 00:15:54;;;;;;;6.43;3.10;;;11.80;99.90;;;16.00;100.00;100942.53;4986022;28;20073;-85
2023/06/28 00:18:20;;;;;;;9.73;3.65;;;11.70;99.90;;;15.76;100.00;100954.41;5013733;28;20091;-85
2023/06/28 00:20:45;;;;;;;7.57;3.30;;;11.70;99.90;;;15.96;100.00;100954.03;5006179;28;20513;-85
2023/06/28 00:23:11;;;;;;;8.75;3.58;;;11.60;99.90;;;15.64;100.00;100950.88;5003991;28;20043;-85
2023/06/28 00:25:37;;;;;;;8.73;4.03;;;11.70;99.90;;;15.63;100.00;100961.03;4994410;28;20038;-85
2023/06/28 00:28:04;;;;;;;7.72;3.70;;;11.70;99.90;;;15.69;100.00;100964.72;5002828;28;20057;-84
2023/06/28 00:30:31;;;;;;;13.07;3.85;;;11.80;99.90;;;15.87;100.00;100960.13;4970435;28;20073;-85
2023/06/28 00:32:57;;;;;;;10.90;4.60;;;11.70;99.90;;;15.91;100.00;100966.84;4988635;28;20034;-85
2023/06/28 00:35:23;;;;;;;10.43;4.07;;;11.70;99.90;;;16.00;100.00;100959.03;5007313;28;20041;-85
2023/06/28 00:37:49;;;;;;;8.50;3.70;;;11.70;99.90;;;16.08;100.00;100966.88;4987100;28;20042;-86
2023/06/28 00:40:16;;;;;;;8.80;3.58;;;11.60;99.90;;;16.10;100.00;100968.31;4992880;28;20095;-85
2023/06/28 00:42:41;;;;;;;11.27;4.03;;;11.60;99.90;;;16.02;100.00;100960.44;5001692;28;20045;-85
2023/06/28 00:45:13;;;;;;;8.25;3.55;;;11.50;99.90;;;16.06;100.00;100960.81;5006854;28;20034;-85
2023/06/28 00:47:41;;;;;;;11.18;4.22;;;11.50;99.90;;;16.01;100.00;100963.47;5010868;28;20345;-86
2023/06/28 00:50:07;;;;;;;;;;;11.40;99.90;;;15.94;100.00;100961.69;4988523;28;20402;-85
2023/06/28 00:52:33;;;;;;;8.77;3.95;;;11.40;99.90;;;15.91;100.00;100967.69;5008749;28;20384;-85
2023/06/28 00:55:03;;;;;;;11.80;4.28;;;11.40;99.90;;;15.94;100.00;100966.34;5001545;28;20034;-86
2023/06/28 00:57:29;;;;;;;8.40;4.72;;;11.40;99.90;;;15.89;100.00;100974.50;4996891;28;20078;-86
2023/06/28 00:59:58;;;;;;;14.90;4.80;;;11.40;99.90;;;15.82;100.00;100963.59;5007981;28;20096;-86
2023/06/28 01:02:25;;;;;;;11.35;4.80;;;11.30;99.90;;;15.79;100.00;100966.84;5007568;28;20105;-86
2023/06/28 01:04:57;;;;;;;12.23;4.85;;;11.30;99.90;;;15.78;100.00;100967.94;5002075;28;20045;-86
2023/06/28 01:07:28;;;;;;;9.68;4.60;;;11.30;99.90;;;15.74;100.00;100969.50;5006903;28;20514;-87
2023/06/28 01:09:57;;;;;;;11.65;4.97;;;11.20;99.90;;;15.72;100.00;100974.41;5000682;28;20450;-86
2023/06/28 01:12:27;;;;;;;10.13;4.82;;;11.20;99.90;;;15.72;100.00;100968.91;4994252;28;20045;-86
2023/06/28 01:14:53;;;;;;;10.75;5.82;;;11.20;99.90;;;15.72;100.00;100966.16;4995815;28;20482;-86
2023/06/28 01:17:20;;;;;;;11.10;5.00;;;11.20;99.90;;;15.73;100.00;100965.09;4995461;28;20459;-86
2023/06/28 01:19:46;;;;;;;10.25;5.18;;;11.30;99.90;;;15.71;100.00;100972.75;5002538;28;20070;-87
2023/06/28 01:22:13;;;;;;;14.75;6.55;;;11.30;99.90;;;15.63;100.00;100955.53;5005361;28;20161;-86
2023/06/28 01:24:41;;;;;;;11.57;5.63;;;11.20;99.90;;;15.65;100.00;100972.66;4991096;28;20113;-86
2023/06/28 01:27:11;;;;;;;12.00;5.40;;;11.20;99.90;;;15.61;100.00;100976.94;5008261;28;20041;-86
2023/06/28 01:29:37;;;;;;;13.48;5.75;;;11.10;99.90;;;15.64;100.00;100970.94;5011177;28;20029;-86
2023/06/28 01:32:07;;;;;;;9.57;5.57;;;11.10;99.90;;;15.53;100.00;100967.16;5013889;28;20049;-85
2023/06/28 01:34:34;;;;;;;10.00;5.30;;;11.10;99.90;;;15.52;100.00;100984.75;5008026;28;20021;-86
2023/06/28 01:37:04;;;;;;;13.65;6.30;;;11.10;99.90;;;15.43;100.00;100972.44;4980483;28;20450;-86
2023/06/28 01:39:33;;;;;;;13.32;6.75;;;11.10;99.90;;;15.54;100.00;100987.22;5001799;28;20390;-87
2023/06/28 01:42:00;;;;;;;14.25;7.40;;;11.20;99.90;;;15.55;100.00;100988.91;5005738;28;20152;-86
2023/06/28 01:44:26;;;;;;;16.10;6.82;;;11.20;99.90;;;15.63;100.00;100988.53;4987527;28;20026;-86
2023/06/28 01:46:55;;;;;;;14.13;6.32;;;11.20;99.90;;;15.69;100.00;100981.22;5005218;28;20085;-86
2023/06/28 01:49:21;;;;;;;14.65;6.97;;;11.20;99.90;;;15.65;100.00;100983.63;5005549;28;20034;-86
2023/06/28 01:51:47;;;;;;;15.85;6.50;;;11.20;99.90;;;15.58;100.00;100971.09;5023640;28;20033;-87
2023/06/28 01:54:15;;;;;;;16.38;6.90;;;11.20;99.90;;;15.61;100.00;100984.34;5014802;28;20065;-87
2023/06/28 01:56:41;;;;;;;14.65;7.18;;;11.20;99.90;;;15.66;100.00;100993.56;5023074;28;20027;-86
2023/06/28 01:59:08;;;;;;;12.73;6.65;;;11.20;99.90;;;15.65;100.00;100991.03;5028728;28;20068;-85
2023/06/28 02:01:33;;;;;;;16.13;6.50;;;11.20;99.90;;;15.61;100.00;100993.44;5013787;28;20038;-87
2023/06/28 02:03:59;;;;;;;12.55;7.05;;;11.10;99.90;;;15.60;100.00;100988.19;5029409;28;20042;-86
2023/06/28 02:06:25;;;;;;;11.55;6.93;;;11.20;99.90;;;15.65;100.00;100989.16;5019337;28;20044;-86
2023/06/28 02:08:50;;;;;;;13.88;7.65;;;11.20;99.90;;;15.59;100.00;100995.59;5020206;28;20047;-86
2023/06/28 02:11:16;;;;;;;13.80;7.15;;;11.20;99.90;;;15.73;100.00;100996.16;5015680;28;20130;-86
2023/06/28 02:13:42;;;;;;;12.90;7.28;;;11.10;99.90;;;15.72;100.00;100996.41;5039443;28;20069;-87
2023/06/28 02:16:08;;;;;;;12.18;6.70;;;11.20;99.90;;;15.68;100.00;100974.06;5039356;28;20045;-86
2023/06/28 02:18:37;;;;;;;18.40;7.37;;;11.20;99.90;;;15.55;100.00;100975.16;5017553;28;20050;-86
2023/06/28 02:21:03;;;;;;;15.82;7.30;;;11.10;99.90;;;15.72;100.00;100991.72;5009311;28;20027;-87
2023/06/28 02:23:28;;;;;;;20.55;7.80;;;11.10;99.90;;;15.80;100.00;100987.78;5003229;28;20095;-86
2023/06/28 02:25:54;;;;;;;16.02;7.50;;;11.20;99.90;;;15.77;100.00;100972.56;5009455;28;20042;-87
2023/06/28 02:28:20;;;;;;;11.30;6.90;;;11.20;99.90;;;15.77;100.00;100982.75;4997954;28;20086;-87
2023/06/28 02:30:45;;;;;;;16.80;7.53;;;11.10;99.90;;;15.70;100.00;100982.88;4997873;28;20049;-86
2023/06/28 02:33:11;;;;;;;17.73;7.05;;;11.10;99.90;;;15.77;100.00;100977.25;5006801;28;20038;-86
2023/06/28 02:35:37;;;;;;;14.45;7.18;;;11.10;99.90;;;15.82;100.00;100985.63;5004310;28;20073;-88
2023/06/28 02:38:03;;;;;;;12.60;6.82;;;11.10;99.90;;;15.70;100.00;100982.06;5015897;28;20035;-85
2023/06/28 02:40:29;;;;;;;10.32;7.07;;;11.10;99.90;;;15.70;100.00;100977.41;4997137;28;20121;-86
2023/06/28 02:42:55;;;;;;;11.48;6.97;;;11.10;99.90;;;15.70;100.00;100993.06;5017530;28;20034;-87
2023/06/28 02:45:21;;;;;;;12.90;7.10;;;11.10;99.90;;;15.68;100.00;100980.41;4999898;28;20026;-86
2023/06/28 02:47:47;;;;;;;21.33;8.02;;;11.00;99.90;;;15.64;100.00;100979.19;5005443;28;20100;-86
2023/06/28 02:50:14;;;;;;;12.57;7.22;;;11.00;99.90;;;15.40;100.00;100945.44;4997843;28;20038;-86
2023/06/28 02:52:54;;;;;;;13.25;7.40;;;11.00;99.90;;;15.58;100.00;100985.66;4984667;28;20023;-86
2023/06/28 02:55:21;;;;;;;17.67;7.65;;;10.90;99.90;;;15.52;100.00;100981.16;4972539;28;20133;-87
2023/06/28 02:57:47;;;;;;;15.75;7.80;;;11.00;99.90;;;15.59;100.00;100986.53;4990685;28;20035;-88
2023/06/28 03:00:15;;;;;;;14.43;7.32;;;11.00;99.90;;;15.67;100.00;100995.22;4982777;28;20561;-88
2023/06/28 03:02:40;;;;;;;13.88;7.30;;;11.00;99.90;;;15.63;100.00;100996.78;4966309;28;20081;-88
2023/06/28 03:05:09;;;;;;;11.27;7.22;;;11.00;99.90;;;15.64;100.00;100992.94;4958442;28;20048;-88
2023/06/28 03:07:35;;;;;;;20.73;8.43;;;11.00;99.90;;;15.68;100.00;100993.31;4976156;28;20031;-87
2023/06/28 03:10:05;;;;;;;15.27;8.05;;;11.10;99.90;;;15.77;100.00;100983.59;4965441;28;20458;-79
2023/06/28 03:12:31;;;;;;;18.38;8.45;;;11.10;99.90;;;15.82;100.00;100982.88;4978034;28;20026;-89
2023/06/28 03:14:58;;;;;;;15.20;8.43;;;11.10;99.90;;;15.95;100.00;100990.88;4999426;28;20049;-89
2023/06/28 03:17:25;;;;;;;14.50;8.13;;;11.20;99.90;;;15.99;100.00;100991.22;4977806;28;20039;-90
2023/06/28 03:19:50;;;;;;;14.55;7.50;;;11.20;99.90;;;15.99;100.00;100990.38;4991649;28;20073;-88
2023/06/28 03:22:16;;;;;;;16.52;8.52;;;11.20;99.90;;;15.94;100.00;100997.47;4973534;28;20069;-88
2023/06/28 03:24:43;;;;;;;14.68;8.25;;;11.20;99.90;;;15.91;100.00;100994.34;4988516;28;20039;-91
2023/06/28 03:27:11;;;;;;;15.52;8.55;;;11.30;99.90;;;16.03;100.00;101000.63;4969031;28;20034;-89
2023/06/28 03:29:38;;;;;;;12.93;7.90;;;11.30;99.90;;;16.05;100.00;101003.16;4969613;28;20094;-90
2023/06/28 03:32:05;;;;;;;15.82;7.88;;;11.30;99.90;;;16.07;100.00;100999.09;4964832;28;20034;-88
2023/06/28 03:34:31;;;;;;;15.25;9.18;;;11.40;99.90;;;16.16;100.00;100999.50;4987202;28;20038;-88
2023/06/28 03:37:00;;;;;;;17.05;8.30;;;11.40;99.90;;;16.20;100.00;100997.97;4983672;28;20466;-86
2023/06/28 03:39:27;;;;;;;16.38;8.25;;;11.50;99.90;;;16.39;100.00;100998.59;4963075;28;20081;-88
2023/06/28 03:41:53;;;;;;;13.57;8.27;;;11.60;99.90;;;16.34;100.00;100998.50;4972156;28;20046;-84
2023/06/28 03:44:19;;;;;;;18.17;8.77;;;11.70;99.90;;;16.27;100.00;100985.97;4968458;28;20446;-86
2023/06/28 03:46:45;;;;;;;16.88;8.10;;;11.80;99.90;;;16.37;100.00;100988.88;4991805;28;20030;-83
2023/06/28 03:49:11;;;;;;;18.35;8.63;;;11.90;99.90;;;16.37;100.00;100991.63;4968083;28;20034;-90
2023/06/28 03:51:37;;;;;;;13.55;8.02;;;11.90;99.90;;;16.45;100.00;100990.41;4980815;28;20390;-85
2023/06/28 03:54:03;;;;;;;15.48;8.13;;;11.90;99.90;;;16.36;100.00;100989.97;4988111;28;20083;-80
2023/06/28 03:56:29;;;;;;;16.17;7.97;;;11.90;99.90;;;16.49;100.00;100988.81;4976177;28;20054;-90
2023/06/28 03:58:54;;;;;;;15.05;7.68;;;12.00;99.90;;;16.60;100.00;100985.19;4979253;28;20030;-89
2023/06/28 04:01:20;;;;;;;14.48;7.57;;;12.00;99.90;;;16.52;100.00;100978.16;4999515;28;20034;-90
2023/06/28 04:03:46;;;;;;;17.15;7.72;;;12.00;99.90;;;16.70;100.00;100989.19;4997306;28;20057;-88
2023/06/28 04:06:11;;;;;;;15.43;7.78;;;12.10;99.90;;;16.57;100.00;100985.66;4998317;28;20030;-84
2023/06/28 04:08:37;;;;;;;16.20;8.00;;;12.10;99.90;;;16.76;100.00;100993.69;4965041;28;20138;-86
2023/06/28 04:11:03;;;;;;;16.00;7.47;;;12.20;99.90;;;16.19;100.00;100929.38;4989061;28;20033;-82
2023/06/28 04:13:28;;;;;;;14.35;6.90;;;12.30;99.90;;;16.90;100.00;100996.94;4992422;28;20038;-87
2023/06/28 04:15:55;;;;;;;14.25;8.15;;;12.30;99.90;;;16.97;100.00;101000.34;4990906;28;20034;-90
2023/06/28 04:18:20;;;;;;;15.00;7.25;;;12.40;99.90;;;16.96;100.00;100984.91;4995904;28;20062;-87
2023/06/28 04:20:46;;;;;;;15.93;7.50;;;12.40;99.90;;;16.87;100.00;100994.69;5001607;28;20042;-88
2023/06/28 04:23:12;;;;;;;13.40;6.63;;;12.50;99.90;;;17.10;100.00;100994.53;4996817;28;20508;-87
2023/06/28 04:25:38;;;;;;;14.82;6.85;;;12.60;99.90;;;16.95;100.00;100997.03;4980345;28;20042;-84
2023/06/28 04:28:04;;;;;;;16.00;6.95;;;12.60;99.90;;;17.00;100.00;100997.16;4965691;28;20031;-82
2023/06/28 04:30:31;;;;;;;13.15;6.32;;;12.70;99.90;;;17.30;100.00;100997.84;4979800;28;20578;-84
2023/06/28 04:32:57;;;;;;;13.33;6.83;;;12.80;99.90;;;17.46;100.00;100996.13;4979840;28;20442;-81
2023/06/28 04:35:23;;;;;;;12.55;6.40;;;12.80;99.90;;;17.43;100.00;101003.03;4982436;28;20042;-82
2023/06/28 04:37:50;;;;;;;13.18;6.00;;;12.90;99.90;;;17.14;100.00;101003.16;4979359;28;20081;-81
2023/06/28 04:40:16;;;;;;;11.55;5.97;;;13.00;99.90;;;17.50;100.00;100994.53;4981721;28;20046;-82
2023/06/28 04:42:42;;;;;;;17.08;6.45;;;13.10;99.90;;;17.68;100.00;100990.66;4982054;28;20034;-82
2023/06/28 04:45:09;;;;;;;17.17;5.63;;;13.20;99.90;;;17.56;100.00;100996.28;4982351;28;20069;-81
2023/06/28 04:47:38;;;;;;;12.35;5.22;;;13.20;99.90;;;16.89;100.00;100989.75;4976183;28;20037;-81
2023/06/28 04:50:08;;;;;;;13.13;5.65;;;13.30;99.90;;;17.77;100.00;100989.09;4983461;28;20164;-80
2023/06/28 04:52:33;;;;;;;10.65;4.90;;;13.50;99.90;;;17.88;100.00;100998.34;4972696;28;20043;-80
2023/06/28 04:54:59;;;;;;;12.70;5.00;;;13.60;99.90;;;17.94;100.00;100999.25;4957915;28;20042;-81
2023/06/28 04:57:25;;;;;;;12.25;4.90;;;13.70;99.90;;;18.19;100.00;100995.97;4975357;28;20031;-82
2023/06/28 04:59:50;;;;;;;11.93;4.47;;;13.90;99.90;;;17.98;100.00;100992.13;4976969;28;20035;-81
2023/06/28 05:02:16;;;;;;;12.52;5.38;;;14.00;99.90;;;18.13;100.00;100991.50;4969089;28;20050;-82
2023/06/28 05:04:42;;;;;;;8.15;4.20;;;14.10;99.90;;;18.22;100.00;100998.19;4974887;28;20054;-82
2023/06/28 05:07:09;;;;;;;9.40;4.20;;;14.20;99.90;;;18.18;100.00;100986.00;4981755;28;20042;-81
2023/06/28 05:09:36;;;;;;;10.93;4.22;;;14.20;99.90;;;18.21;100.00;100991.00;4987788;28;20089;-81
2023/06/28 05:12:04;;;;;;;17.98;4.82;;;14.30;99.90;;;18.36;100.00;100979.28;4983104;28;20117;-81
2023/06/28 05:14:31;;;;;;;15.03;3.97;;;14.40;99.90;;;18.53;100.00;100981.09;4978875;28;20475;-84
2023/06/28 05:16:57;;;;;;;12.40;4.35;;;14.50;99.90;;;18.92;100.00;100983.63;4973149;28;20112;-82
2023/06/28 05:19:24;;;;;;;13.65;3.90;;;14.70;99.90;;;18.94;100.00;100986.13;5000145;28;20043;-88
2023/06/28 05:21:50;;;;;;;9.43;4.32;;;14.80;99.90;;;19.14;100.00;100985.47;5006030;28;20052;-87
2023/06/28 05:24:18;;;;;;;10.45;4.22;;;14.90;99.90;;;19.13;100.00;100988.53;5006491;28;20450;-85
2023/06/28 05:26:44;;;;;;;8.90;4.18;;;15.00;99.90;;;19.06;100.00;100984.03;5008038;28;20088;-86
2023/06/28 05:29:10;;;;;;;13.10;4.57;;;15.10;99.90;;;18.71;100.00;100981.81;5000172;28;20125;-86
2023/06/28 05:31:40;;;;;;;12.35;3.70;;;15.20;99.90;;;19.36;100.00;100981.72;5000861;28;20037;-84
2023/06/28 05:34:06;;;;;;;9.68;3.50;;;15.30;99.90;;;19.48;100.00;100978.75;4994951;28;20461;-83
2023/06/28 05:36:32;;;;;;;9.18;3.63;;;15.40;99.90;;;19.40;100.00;100977.31;5012422;28;20052;-85
2023/06/28 05:38:58;;;;;;;11.43;3.85;;;15.50;99.90;;;19.67;100.00;100979.97;5006486;28;20046;-85
2023/06/28 05:41:24;;;;;;;14.98;3.90;;;15.60;99.90;;;19.45;100.00;100985.66;5007609;28;20390;-86
2023/06/28 05:43:50;;;;;;;11.32;4.03;;;15.70;99.90;;;19.75;100.00;100992.41;5001915;28;20034;-86
2023/06/28 05:46:16;;;;;;;8.57;3.42;;;15.80;99.90;;;20.11;100.00;100975.97;4996367;28;20127;-85
2023/06/28 05:48:43;;;;;;;13.70;4.22;;;15.90;99.90;;;19.55;100.00;100988.47;4995495;28;20038;-84
2023/06/28 05:51:12;;;;;;;10.52;3.35;;;16.00;99.90;;;20.08;100.00;100987.59;4987682;28;20030;-85
2023/06/28 05:53:40;;;;;;;8.38;3.47;;;16.10;99.90;;;20.22;100.00;100985.13;5012612;28;20080;-87
2023/06/28 05:56:06;;;;;;;11.63;3.55;;;16.20;99.90;;;20.47;100.00;100979.91;5013412;28;20045;-79
2023/06/28 05:58:32;;;;;;;13.23;3.50;;;16.30;99.90;;;20.51;99.81;100978.25;4994927;28;20044;-80
2023/06/28 06:00:59;;;;;;;12.88;3.78;;;16.40;99.90;;;20.39;100.00;100971.03;4993891;28;20048;-81
2023/06/28 06:03:25;;;;;;;11.20;3.20;;;16.50;99.90;;;20.39;100.00;100975.72;5005417;28;20030;-80
2023/06/28 06:05:53;;;;;;;12.02;3.40;;;16.50;99.90;;;20.65;100.00;100978.53;4999791;28;20069;-82
2023/06/28 06:08:18;;;;;;;10.60;3.08;;;16.60;99.90;;;20.66;98.08;100969.09;5001895;28;20771;-81
2023/06/28 06:10:44;;;;;;;10.40;3.30;;;16.70;99.90;;;20.63;96.48;100969.66;5001097;28;20474;-81
2023/06/28 06:13:10;;;;;;;9.98;3.45;;;16.80;99.90;;;20.68;97.59;100976.03;5005132;28;20130;-81
2023/06/28 06:15:35;;;;;;;7.25;3.58;;;16.80;99.90;;;20.68;95.68;100972.41;4997822;28;20037;-81
2023/06/28 06:18:01;;;;;;;9.45;3.58;;;16.80;99.90;;;20.86;96.98;100971.06;4998647;28;20417;-81
2023/06/28 06:20:27;;;;;;;10.35;3.50;;;16.80;99.90;;;20.96;96.44;100971.06;5003442;28;20641;-81
2023/06/28 06:22:52;;;;;;;10.18;3.25;;;17.00;99.90;;;21.04;94.34;100966.91;5003708;28;20395;-81
2023/06/28 06:25:18;;;;;;;10.00;3.50;;;16.90;99.90;;;21.03;92.56;100962.47;4996417;28;20461;-81
2023/06/28 06:27:44;;;;;;;7.05;3.00;;;16.90;99.90;;;20.88;94.82;100973.56;4994329;28;20092;-81
2023/06/28 06:30:10;;;;;;;9.35;3.22;;;17.10;99.90;;;21.02;92.32;100966.34;4995269;28;20056;-81
2023/06/28 06:32:36;;;;;;;10.75;3.67;;;17.10;99.90;;;20.76;93.84;100980.19;4997409;28;20038;-81
2023/06/28 06:35:04;;;;;;;7.18;3.20;;;17.10;99.90;;;20.88;96.46;100979.09;4993801;28;20034;-81
2023/06/28 06:37:29;;;;;;;8.40;2.72;;;17.00;99.90;;;21.22;93.92;100971.00;4999306;28;20109;-81
2023/06/28 06:39:55;;;;;;;8.43;3.00;;;17.10;99.90;;;21.00;92.07;100976.88;4993341;28;20038;-81
2023/06/28 06:42:21;;;;;;;11.90;3.40;;;17.30;99.90;;;21.30;92.59;100980.72;4996288;28;20401;-80
2023/06/28 06:44:46;;;;;;;7.90;3.20;;;17.40;99.90;;;20.81;96.05;100985.75;4996059;28;20046;-81
2023/06/28 06:47:12;;;;;;;6.72;2.50;;;17.50;99.90;;;21.26;89.98;100983.19;4993222;28;20042;-82
2023/06/28 06:49:38;;;;;;;9.70;2.90;;;17.70;99.90;;;21.56;91.74;100988.97;4994446;28;20104;-80
2023/06/28 06:52:04;;;;;;;11.45;2.40;;;17.70;99.90;;;21.63;85.42;100983.09;5002867;28;20062;-80
2023/06/28 06:54:30;;;;;;;9.30;2.53;;;17.90;99.90;;;20.93;88.58;100985.47;5005267;28;20034;-81
2023/06/28 06:56:58;;;;;;;7.90;2.88;;;17.80;99.90;;;21.36;86.15;100996.22;5006905;28;20046;-81
2023/06/28 06:59:24;;;;;;;7.90;2.65;;;17.90;99.90;;;20.74;90.26;100995.44;4998836;28;20042;-81
2023/06/28 07:01:50;;;;;;;9.23;2.55;;;17.80;99.90;;;21.65;87.74;100990.06;4998854;28;20376;-81
2023/06/28 07:04:17;;;;;;;7.50;2.15;;;17.80;99.90;;;22.01;83.39;100988.22;4993156;28;20041;-81
2023/06/28 07:06:46;;;;;;;7.87;2.40;;;17.90;99.90;;;20.83;90.09;101002.13;5006729;28;20037;-81
2023/06/28 07:09:17;;;;;;;7.47;2.40;;;17.90;99.90;;;21.32;86.72;100997.91;4981515;28;20038;-79
2023/06/28 07:11:44;;;;;;;6.68;1.80;;;17.90;99.90;;;21.82;81.27;100975.00;4991041;28;20026;-80
2023/06/28 07:14:10;;;;;;;10.47;2.10;;;18.10;99.90;;;21.52;78.53;100987.88;5012926;28;20073;-82
2023/06/28 07:16:35;;;;;;;12.20;2.17;;;18.20;99.90;;;21.09;82.27;100991.03;5012050;28;20041;-81
2023/06/28 07:19:02;;;;;;;6.75;2.10;;;18.20;99.90;;;21.99;78.12;100994.06;5016489;28;20498;-82
2023/06/28 07:21:29;;;;;;;11.15;2.25;;;18.40;99.90;;;22.54;74.46;100991.25;4988707;28;20046;-79
2023/06/28 07:23:55;;;;;;;7.15;2.45;;;18.70;99.90;;;22.82;71.35;100993.53;4975444;28;20046;-78
2023/06/28 07:26:22;;;;;;;7.28;1.92;;;18.90;99.90;;;22.54;69.77;100988.47;5005807;28;20581;-80
2023/06/28 07:28:47;;;;;;;16.83;10.23;;;19.10;99.90;;;22.51;69.51;100988.22;5002614;28;20129;-80
2023/06/28 07:31:13;;;;;;;7.38;2.40;;;19.10;99.90;;;22.82;65.12;100987.97;4999355;28;20038;-79
2023/06/28 07:33:42;;;;;;;6.85;1.90;;;19.10;99.90;;;22.20;69.70;100996.75;4993458;28;20039;-79
2023/06/28 07:36:08;;;;;;;5.18;1.58;;;18.80;99.90;;;22.17;70.01;100997.31;4994819;28;20069;-79
2023/06/28 07:38:34;;;;;;;5.10;1.60;;;18.90;99.90;;;22.25;67.36;100997.53;4998653;28;20105;-79
2023/06/28 07:41:00;;;;;;;4.38;1.38;;;19.00;99.90;;;21.02;66.63;100990.47;4999491;28;20041;-84
2023/06/28 07:43:26;;;;;;;9.07;1.60;;;18.70;99.90;;;21.91;64.87;100992.72;5004139;28;20034;-80
2023/06/28 07:45:52;;;;;;;4.82;1.63;;;18.70;99.90;;;22.84;60.92;100981.00;5000824;28;20061;-81
2023/06/28 07:48:19;;;;;;;7.10;2.00;;;19.00;99.90;;;21.75;65.14;100994.75;4998181;28;20034;-82
2023/06/28 07:50:47;;;;;;;10.98;1.60;;;19.00;99.90;;;21.95;65.06;100981.88;5006693;28;20084;-81
2023/06/28 07:53:13;;;;;;;5.40;1.30;;;19.10;99.90;;;22.50;60.02;100976.25;4998813;28;20034;-81
2023/06/28 07:55:39;;;;;;;6.32;1.63;;;19.10;99.90;;;22.99;58.45;100970.84;4981104;28;20100;-84
2023/06/28 07:58:05;;;;;;;5.22;1.42;;;19.40;99.90;;;22.80;56.92;100963.22;5008451;28;20034;-80
2023/06/28 08:00:31;;;;;;;4.68;1.33;;;19.40;99.90;;;22.17;58.05;100981.47;5003110;28;20041;-81
2023/06/28 08:02:58;;;;;;;5.60;1.33;;;19.30;99.90;;;22.83;50.96;100939.56;4991087;28;20045;-81
2023/06/28 08:05:24;;;;;;;6.50;1.70;;;19.40;98.10;;;22.99;52.78;100960.56;4985387;28;20046;-80
2023/06/28 08:07:54;;;;;;;7.28;1.45;;;19.50;99.80;;;23.17;53.50;100960.91;4995699;28;20056;-80
2023/06/28 08:10:22;;;;;;;4.25;1.50;;;19.70;99.90;;;23.24;53.68;100968.91;4988281;28;20043;-82
2023/06/28 08:12:48;;;;;;;6.32;1.38;;;19.90;99.90;;;23.62;54.24;100976.59;4998008;28;20045;-86
2023/06/28 08:15:14;;;;;;;6.28;1.40;;;20.10;99.90;;;23.53;52.31;100963.31;5000779;28;20107;-84
2023/06/28 08:17:40;;;;;;;5.22;1.40;;;20.10;99.00;;;22.46;56.46;100988.22;5007315;28;20033;-87
2023/06/28 08:20:06;;;;;;;10.90;1.55;;;20.00;99.60;;;22.05;56.75;100973.47;5001699;28;20044;-84
2023/06/28 08:22:32;;;;;;;7.30;1.42;;;19.70;99.10;;;22.48;54.33;100961.81;5006525;28;20037;-86
2023/06/28 08:24:58;;;;;;;4.47;1.65;;;19.80;98.50;;;22.74;54.25;100967.16;5005970;28;20121;-84
2023/06/28 08:27:24;;;;;;;5.80;1.60;;;19.90;98.40;;;23.55;53.38;100968.59;5019808;28;20045;-86
2023/06/28 08:29:49;;;;;;;4.25;1.38;;;20.00;99.70;;;22.84;54.32;100982.94;5021667;28;20038;-84
2023/06/28 08:32:15;;;;;;;7.28;1.50;;;20.10;99.00;;;24.19;52.69;100978.63;5003184;28;20040;-84
2023/06/28 08:34:41;;;;;;;7.50;1.30;;;20.40;99.40;;;24.32;47.35;100938.00;5006599;28;20064;-85
2023/06/28 08:37:07;;;;;;;5.63;1.42;;;20.50;95.80;;;24.41;46.56;100941.78;5011349;28;20041;-84
2023/06/28 08:39:33;;;;;;;3.90;1.13;;;20.60;95.00;;;23.70;47.10;100957.25;5002856;28;20120;-85
2023/06/28 08:42:02;;;;;;;6.40;1.30;;;20.50;95.00;;;23.53;48.32;100951.34;4996988;28;20580;-84
2023/06/28 08:44:31;;;;;;;8.52;1.60;;;20.40;94.90;;;24.30;47.43;100952.28;5002318;28;20093;-85
2023/06/28 08:46:58;;;;;;;5.82;1.25;;;20.50;95.40;;;23.02;48.98;100970.25;5001378;28;20469;-82
2023/06/28 08:49:25;;;;;;;6.47;1.63;;;20.40;94.40;;;23.04;49.61;100962.44;5002721;28;20113;-87
2023/06/28 08:51:52;;;;;;;4.60;1.38;;;20.30;94.90;;;22.43;50.66;100970.16;5010028;28;20048;-79
2023/06/28 08:54:21;;;;;;;5.32;1.35;;;20.20;94.70;;;22.93;48.89;100955.31;5001846;28;20039;-87
2023/06/28 08:56:50;;;;;;;5.75;1.17;;;20.30;94.00;;;23.70;46.89;100942.50;4993031;28;20175;-86
2023/06/28 08:59:16;;;;;;;6.20;1.40;;;20.40;93.70;;;24.04;47.53;100958.22;5004225;28;20062;-84
2023/06/28 09:01:42;;;;;;;4.68;1.60;;;20.60;94.40;;;24.62;45.65;100933.06;4983481;28;20085;-84
2023/06/28 09:04:08;;;;;;;5.95;1.10;;;20.90;93.40;;;24.63;44.63;100931.94;5005268;28;20030;-83
2023/06/28 09:06:34;;;;;;;6.35;1.33;;;21.20;92.50;;;24.76;45.27;100947.91;5007227;28;20044;-83
2023/06/28 09:09:01;;;;;;;4.90;1.02;;;21.30;92.70;;;25.07;44.53;100936.19;5000810;28;20084;-83
2023/06/28 09:11:27;;;;;;;7.20;1.50;;;;;;;24.89;42.98;100920.34;4995451;28;20042;-85
2023/06/28 09:13:53;;;;;;;3.03;0.98;;;21.30;92.40;;;25.01;43.51;100931.00;4995798;28;20125;-85
2023/06/28 09:16:20;;;;;;;4.35;1.17;;;21.60;91.50;;;25.33;42.34;100932.88;5002147;28;20038;-84
2023/06/28 09:18:46;;;;;;;7.28;1.33;;;21.80;90.70;;;25.25;41.87;100909.31;4997232;28;20050;-87
2023/06/28 09:21:25;;;;;;;4.88;1.15;;;21.80;89.70;;;25.08;42.13;100915.50;5010148;28;20045;-84
2023/06/28 09:23:51;;;;;;;3.65;1.40;;;21.80;89.80;;;25.19;42.37;100920.88;5006227;28;20533;-84
2023/06/28 09:26:16;;;;;;;4.60;1.20;;;21.70;90.40;;;25.10;42.27;100921.59;5000264;28;20046;-86
2023/06/28 09:28:42;;;;;;;4.72;1.30;;;21.80;90.00;;;25.31;41.42;100906.41;5007418;28;20053;-84
2023/06/28 09:31:08;;;;;;;4.68;1.27;;;21.90;90.00;;;24.99;41.89;100917.38;5003763;28;20389;-84
2023/06/28 09:33:34;;;;;;;5.47;1.40;;;21.80;88.40;;;24.59;41.28;100914.16;4994668;28;20034;-86
2023/06/28 09:36:04;;;;;;;3.72;1.13;;;21.80;86.90;;;25.09;40.66;100917.16;5004362;28;20025;-85
2023/06/28 09:38:30;;;;;;;4.90;1.40;;;21.80;86.70;;;25.60;40.42;100917.28;5010344;28;20565;-85
2023/06/28 09:41:02;;;;;;;5.72;1.10;;;21.90;87.00;;;24.95;41.81;100935.88;5003764;28;20142;-83
2023/06/28 09:43:33;;;;;;;4.90;1.40;;;21.90;87.30;;;23.78;43.55;100952.16;5003834;28;20073;-78
2023/06/28 09:46:15;;;;;;;4.70;1.02;;;21.70;87.10;;;23.47;41.55;100913.56;4996930;28;20474;-85
2023/06/28 09:48:48;;;;;;;4.78;1.20;;;21.30;83.40;;;24.00;41.28;100926.47;4998487;28;20052;-82
2023/06/28 09:51:18;;;;;;;7.13;1.30;;;21.40;84.40;;;24.73;40.24;100887.13;4989298;28;20030;-83
2023/06/28 09:53:53;;;;;;;3.20;1.10;;;21.60;84.70;;;23.89;41.72;100920.25;5007721;28;20053;-81
2023/06/28 09:56:27;;;;;;;4.35;1.10;;;21.60;84.50;;;25.34;40.50;100912.19;5001545;28;20038;-83
2023/06/28 09:58:53;;;;;;;3.95;0.95;;;21.80;85.50;;;25.22;39.93;100897.94;4995548;28;20041;-87
2023/06/28 10:01:19;;;;;;;4.13;1.10;;;22.20;84.10;;;24.76;40.51;100910.81;4999737;28;20030;-86
2023/06/28 10:03:46;;;;;;;3.88;1.40;;;22.30;83.40;;;25.69;38.71;100895.84;4998298;28;20030;-90